createdAt,value
2024-04-18T00:01:00.930Z,58.29
2024-04-18T00:02:32.743Z,58.54
2024-04-18T00:04:05.332Z,58.57
2024-04-18T00:05:37.505Z,58.52
2024-04-18T00:07:09.585Z,58.40
2024-04-18T00:08:41.918Z,58.36
2024-04-18T00:10:14.038Z,58.40
2024-04-18T00:11:47.600Z,58.38
2024-04-18T00:13:20.274Z,58.47
2024-04-18T00:14:52.325Z,58.66
2024-04-18T00:16:24.586Z,58.64
2024-04-18T00:17:56.773Z,58.71
2024-04-18T00:19:28.543Z,58.62
2024-04-18T00:21:00.197Z,58.47
2024-04-18T00:22:32.178Z,58.53
2024-04-18T00:24:04.405Z,58.61
2024-04-18T00:25:36.191Z,58.66
2024-04-18T00:27:07.890Z,58.65
2024-04-18T00:28:39.623Z,58.72
2024-04-18T00:30:11.638Z,58.57
2024-04-18T00:31:43.482Z,58.48
2024-04-18T00:33:15.410Z,58.52
2024-04-18T00:34:47.118Z,58.48
2024-04-18T00:36:18.860Z,58.62
2024-04-18T00:37:50.793Z,58.41
2024-04-18T00:39:22.787Z,58.41
2024-04-18T00:40:55.042Z,58.46
2024-04-18T00:42:27.106Z,58.48
2024-04-18T00:44:01.757Z,58.60
2024-04-18T00:45:35.252Z,58.47
2024-04-18T00:47:06.920Z,58.51
2024-04-18T00:48:38.810Z,58.49
2024-04-18T00:50:11.274Z,58.37
2024-04-18T00:51:43.405Z,58.31
2024-04-18T00:53:15.074Z,58.25
2024-04-18T00:54:47.324Z,58.39
2024-04-18T00:56:19.150Z,58.42
2024-04-18T00:57:51.086Z,58.47
2024-04-18T00:59:23.100Z,58.59
2024-04-18T01:00:55.617Z,58.48
2024-04-18T01:02:27.975Z,58.38
2024-04-18T01:04:00.391Z,58.29
2024-04-18T01:05:32.731Z,58.30
2024-04-18T01:07:04.447Z,58.40
2024-04-18T01:08:36.117Z,58.27
2024-04-18T01:10:08.044Z,58.41
2024-04-18T01:11:39.825Z,58.40
2024-04-18T01:13:11.894Z,58.38
2024-04-18T01:14:43.590Z,58.46
2024-04-18T01:16:16.139Z,58.49
2024-04-18T01:17:47.865Z,58.42
2024-04-18T01:19:20.210Z,58.43
2024-04-18T01:20:52.082Z,58.27
2024-04-18T01:22:23.953Z,58.38
2024-04-18T01:23:56.074Z,58.41
2024-04-18T01:25:28.259Z,58.75
2024-04-18T01:27:00.562Z,58.33
2024-04-18T01:28:32.377Z,58.33
2024-04-18T01:30:04.160Z,58.21
2024-04-18T01:31:35.817Z,58.40
2024-04-18T01:33:07.974Z,58.35
2024-04-18T01:34:40.071Z,58.40
2024-04-18T01:36:12.075Z,58.25
2024-04-18T01:37:44.367Z,58.51
2024-04-18T01:39:16.327Z,58.47
2024-04-18T01:40:48.266Z,58.54
2024-04-18T01:42:19.986Z,58.51
2024-04-18T01:43:51.689Z,58.85
2024-04-18T01:45:23.642Z,58.60
2024-04-18T01:46:55.725Z,58.60
2024-04-18T01:48:27.891Z,58.72
2024-04-18T01:50:02.608Z,58.65
2024-04-18T01:51:34.782Z,58.68
2024-04-18T01:53:06.541Z,58.48
2024-04-18T01:54:38.300Z,58.68
2024-04-18T01:56:10.079Z,58.75
2024-04-18T01:57:42.374Z,58.53
2024-04-18T01:59:14.115Z,58.64
2024-04-18T02:00:45.973Z,58.61
2024-04-18T02:02:18.599Z,58.52
2024-04-18T02:03:50.887Z,58.45
2024-04-18T02:05:22.628Z,58.44
2024-04-18T02:06:54.492Z,58.59
2024-04-18T02:08:26.306Z,58.40
2024-04-18T02:09:58.186Z,58.44
2024-04-18T02:11:29.948Z,58.35
2024-04-18T02:13:01.721Z,58.38
2024-04-18T02:14:33.376Z,58.43
2024-04-18T02:16:05.976Z,58.41
2024-04-18T02:17:37.743Z,58.45
2024-04-18T02:19:09.433Z,58.57
2024-04-18T02:20:41.098Z,58.59
2024-04-18T02:22:12.786Z,58.23
2024-04-18T02:23:45.009Z,58.15
2024-04-18T02:25:16.775Z,58.19
2024-04-18T02:26:51.269Z,58.28
2024-04-18T02:28:23.172Z,58.14
2024-04-18T02:29:54.982Z,58.11
2024-04-18T02:31:26.748Z,58.02
2024-04-18T02:32:58.769Z,58.12
2024-04-18T02:34:30.710Z,58.22
2024-04-18T02:36:02.722Z,58.27
2024-04-18T02:37:35.229Z,58.23
2024-04-18T02:39:06.866Z,58.17
2024-04-18T02:40:39.005Z,58.19
2024-04-18T02:42:13.165Z,58.11
2024-04-18T02:43:45.201Z,58.01
2024-04-18T02:45:17.035Z,58.17
2024-04-18T02:46:48.785Z,58.24
2024-04-18T02:48:20.568Z,58.02
2024-04-18T02:49:52.473Z,58.14
2024-04-18T02:51:24.284Z,58.20
2024-04-18T02:52:56.497Z,58.17
2024-04-18T02:54:28.501Z,57.98
2024-04-18T02:56:00.953Z,58.17
2024-04-18T02:57:33.117Z,58.16
2024-04-18T02:59:04.854Z,58.18
2024-04-18T03:00:37.164Z,57.83
2024-04-18T03:02:09.013Z,57.88
2024-04-18T03:03:41.127Z,57.70
2024-04-18T03:05:13.299Z,57.90
2024-04-18T03:06:49.053Z,57.90
2024-04-18T03:08:20.923Z,58.06
2024-04-18T03:09:54.211Z,58.07
2024-04-18T03:11:26.058Z,57.99
2024-04-18T03:12:57.824Z,58.05
2024-04-18T03:14:29.929Z,58.08
2024-04-18T03:16:01.614Z,58.05
2024-04-18T03:17:33.447Z,57.99
2024-04-18T03:19:11.716Z,57.99
2024-04-18T03:20:51.932Z,57.86
2024-04-18T03:22:23.589Z,57.78
2024-04-18T03:23:55.494Z,57.75
2024-04-18T03:25:27.116Z,57.42
2024-04-18T03:26:58.889Z,57.29
2024-04-18T03:28:30.841Z,57.26
2024-04-18T03:30:02.686Z,57.37
2024-04-18T03:31:34.481Z,57.63
2024-04-18T03:33:06.176Z,57.23
2024-04-18T03:34:37.920Z,57.01
2024-04-18T03:36:11.541Z,57.10
2024-04-18T03:37:43.294Z,57.13
2024-04-18T03:39:14.978Z,56.96
2024-04-18T03:40:57.006Z,56.98
2024-04-18T03:42:28.928Z,57.18
2024-04-18T03:44:00.890Z,57.25
2024-04-18T03:45:32.807Z,57.13
2024-04-18T03:47:04.948Z,57.14
2024-04-18T03:48:36.785Z,57.10
2024-04-18T03:50:09.291Z,56.98
2024-04-18T03:51:41.170Z,56.95
2024-04-18T03:53:12.891Z,56.82
2024-04-18T03:54:56.113Z,56.79
2024-04-18T03:56:33.679Z,56.64
2024-04-18T03:58:05.427Z,56.83
2024-04-18T03:59:37.099Z,56.81
2024-04-18T04:01:08.892Z,56.88
2024-04-18T04:02:40.672Z,57.01
2024-04-18T04:04:12.468Z,56.97
2024-04-18T04:05:44.385Z,57.13
2024-04-18T04:07:16.250Z,57.10
2024-04-18T04:08:48.213Z,57.11
2024-04-18T04:10:20.067Z,57.12
2024-04-18T04:11:51.790Z,57.15
2024-04-18T04:13:23.554Z,57.18
2024-04-18T04:14:55.416Z,57.27
2024-04-18T04:16:27.963Z,57.44
2024-04-18T04:17:59.931Z,57.34
2024-04-18T04:19:31.986Z,57.39
2024-04-18T04:21:04.358Z,57.42
2024-04-18T04:22:36.659Z,57.46
2024-04-18T04:24:08.494Z,57.34
2024-04-18T04:25:40.445Z,57.48
2024-04-18T04:27:12.183Z,57.58
2024-04-18T04:28:44.178Z,57.52
2024-04-18T04:30:16.377Z,57.54
2024-04-18T04:31:48.472Z,57.54
2024-04-18T04:33:21.030Z,57.45
2024-04-18T04:34:52.907Z,57.50
2024-04-18T04:36:25.745Z,57.56
2024-04-18T04:37:58.892Z,57.34
2024-04-18T04:39:30.574Z,57.55
2024-04-18T04:41:02.246Z,57.59
2024-04-18T04:42:34.403Z,57.64
2024-04-18T04:44:06.287Z,57.58
2024-04-18T04:45:38.059Z,57.60
2024-04-18T04:47:09.778Z,57.61
2024-04-18T04:48:41.670Z,57.71
2024-04-18T04:50:13.542Z,57.59
2024-04-18T04:51:45.259Z,57.67
2024-04-18T04:53:17.044Z,57.75
2024-04-18T04:54:49.227Z,57.69
2024-04-18T04:56:20.986Z,57.76
2024-04-18T04:57:53.043Z,57.63
2024-04-18T04:59:24.812Z,57.75
2024-04-18T05:00:58.221Z,57.80
2024-04-18T05:02:30.274Z,57.78
2024-04-18T05:04:02.053Z,57.67
2024-04-18T05:05:34.014Z,57.57
2024-04-18T05:07:05.775Z,57.57
2024-04-18T05:08:37.735Z,57.46
2024-04-18T05:10:09.443Z,57.52
2024-04-18T05:11:41.202Z,57.51
2024-04-18T05:13:13.127Z,57.51
2024-04-18T05:14:45.006Z,57.40
2024-04-18T05:16:17.114Z,57.41
2024-04-18T05:17:48.812Z,57.48
2024-04-18T05:19:23.544Z,57.48
2024-04-18T05:20:55.297Z,57.36
2024-04-18T05:22:27.104Z,57.44
2024-04-18T05:23:59.252Z,57.27
2024-04-18T05:25:31.061Z,57.37
2024-04-18T05:27:02.928Z,57.29
2024-04-18T05:29:03.308Z,57.26
2024-04-18T05:30:53.677Z,57.18
2024-04-18T05:32:27.546Z,57.17
2024-04-18T05:33:59.412Z,57.38
2024-04-18T05:35:31.114Z,57.19
2024-04-18T05:37:04.637Z,57.18
2024-04-18T05:38:36.759Z,57.17
2024-04-18T05:40:08.849Z,57.35
2024-04-18T05:41:40.733Z,57.07
2024-04-18T05:43:12.378Z,57.27
2024-04-18T05:44:44.174Z,57.36
2024-04-18T05:46:16.591Z,57.25
2024-04-18T05:47:48.334Z,57.25
2024-04-18T05:49:22.477Z,57.15
2024-04-18T05:50:54.251Z,57.11
2024-04-18T05:52:25.962Z,57.11
2024-04-18T05:53:57.997Z,57.09
2024-04-18T05:55:29.679Z,56.76
2024-04-18T05:57:01.796Z,56.87
2024-04-18T05:58:36.656Z,56.94
2024-04-18T06:00:08.561Z,56.69
2024-04-18T06:01:40.266Z,56.76
2024-04-18T06:03:12.013Z,56.63
2024-04-18T06:04:44.293Z,56.73
2024-04-18T06:06:16.083Z,56.58
2024-04-18T06:07:47.896Z,56.90
2024-04-18T06:09:20.249Z,56.94
2024-04-18T06:10:51.951Z,57.00
2024-04-18T06:12:23.724Z,56.79
2024-04-18T06:13:55.717Z,56.60
2024-04-18T06:15:28.123Z,56.65
2024-04-18T06:17:00.251Z,56.71
2024-04-18T06:18:32.126Z,56.39
2024-04-18T06:20:04.498Z,56.79
2024-04-18T06:21:37.012Z,56.67
2024-04-18T06:23:10.256Z,56.50
2024-04-18T06:24:43.263Z,56.66
2024-04-18T06:26:17.016Z,56.66
2024-04-18T06:27:48.972Z,56.53
2024-04-18T06:29:20.746Z,56.74
2024-04-18T06:30:53.420Z,56.36
2024-04-18T06:32:25.458Z,56.22
2024-04-18T06:33:57.265Z,56.46
2024-04-18T06:35:28.951Z,56.23
2024-04-18T06:37:00.689Z,56.20
2024-04-18T06:38:33.374Z,55.80
2024-04-18T06:40:05.972Z,56.28
2024-04-18T06:41:37.924Z,56.04
2024-04-18T06:43:09.753Z,55.94
2024-04-18T06:44:41.457Z,55.77
2024-04-18T06:46:14.037Z,55.56
2024-04-18T06:47:46.656Z,55.40
2024-04-18T06:49:18.921Z,55.49
2024-04-18T06:50:50.710Z,55.22
2024-04-18T06:52:22.460Z,55.36
2024-04-18T06:53:54.281Z,55.50
2024-04-18T06:55:26.375Z,55.37
2024-04-18T06:56:58.098Z,55.09
2024-04-18T06:58:29.805Z,55.14
2024-04-18T07:00:01.896Z,54.77
2024-04-18T07:01:33.972Z,54.75
2024-04-18T07:03:08.254Z,54.66
2024-04-18T07:04:40.182Z,54.46
2024-04-18T07:06:12.604Z,54.50
2024-04-18T07:07:44.363Z,54.36
2024-04-18T07:09:16.341Z,54.52
2024-04-18T07:10:48.311Z,54.59
2024-04-18T07:12:20.171Z,54.32
2024-04-18T07:13:54.104Z,54.54
2024-04-18T07:15:25.877Z,54.28
2024-04-18T07:17:00.876Z,54.31
2024-04-18T07:18:34.062Z,54.54
2024-04-18T07:20:06.232Z,54.42
2024-04-18T07:21:38.235Z,54.46
2024-04-18T07:23:10.342Z,54.41
2024-04-18T07:24:45.775Z,54.31
2024-04-18T07:26:17.591Z,53.93
2024-04-18T07:27:50.272Z,54.08
2024-04-18T07:29:22.615Z,54.14
2024-04-18T07:30:54.581Z,54.07
2024-04-18T07:32:26.426Z,54.17
2024-04-18T07:33:58.282Z,53.86
2024-04-18T07:35:30.027Z,54.05
2024-04-18T07:37:01.892Z,53.63
2024-04-18T07:38:33.948Z,53.80
2024-04-18T07:40:12.631Z,53.33
2024-04-18T07:41:44.391Z,53.69
2024-04-18T07:43:16.228Z,53.31
2024-04-18T07:44:47.910Z,53.32
2024-04-18T07:46:20.334Z,53.41
2024-04-18T07:47:52.285Z,53.27
2024-04-18T07:49:24.240Z,53.37
2024-04-18T07:50:56.033Z,53.23
2024-04-18T07:52:27.999Z,53.19
2024-04-18T07:54:00.516Z,53.03
2024-04-18T07:55:32.848Z,52.90
2024-04-18T07:57:05.345Z,52.64
2024-04-18T07:58:38.436Z,53.04
2024-04-18T08:00:11.614Z,52.96
2024-04-18T08:01:45.124Z,53.13
2024-04-18T08:03:19.883Z,53.27
2024-04-18T08:04:57.810Z,53.01
2024-04-18T08:06:34.487Z,52.86
2024-04-18T08:08:10.726Z,52.44
2024-04-18T08:09:48.090Z,52.91
2024-04-18T08:11:52.887Z,52.37
2024-04-18T08:13:17.519Z,51.77
2024-04-18T08:14:55.509Z,52.30
2024-04-18T08:16:31.501Z,51.93
2024-04-18T08:18:03.358Z,51.70
2024-04-18T08:19:35.363Z,51.96
2024-04-18T08:21:08.515Z,52.03
2024-04-18T08:22:40.572Z,51.82
2024-04-18T08:24:20.327Z,51.78
2024-04-18T08:25:52.488Z,51.41
2024-04-18T08:27:24.411Z,51.35
2024-04-18T08:28:57.620Z,51.06
2024-04-18T08:30:30.166Z,50.64
2024-04-18T08:32:01.964Z,50.50
2024-04-18T08:33:33.871Z,50.89
2024-04-18T08:35:05.701Z,50.49
2024-04-18T08:36:37.463Z,50.41
2024-04-18T08:38:09.936Z,50.74
2024-04-18T08:39:44.099Z,50.26
2024-04-18T08:41:17.500Z,50.63
2024-04-18T08:42:49.548Z,50.54
2024-04-18T08:44:21.249Z,50.03
2024-04-18T08:45:53.177Z,49.78
2024-04-18T08:47:25.561Z,50.10
2024-04-18T08:48:57.627Z,49.75
2024-04-18T08:50:32.633Z,49.43
2024-04-18T08:52:05.167Z,49.18
2024-04-18T08:53:36.959Z,49.28
2024-04-18T08:55:09.263Z,48.97
2024-04-18T08:56:43.240Z,49.45
2024-04-18T08:58:15.020Z,49.03
2024-04-18T08:59:47.269Z,49.05
2024-04-18T09:01:18.987Z,48.87
2024-04-18T09:02:51.043Z,48.90
2024-04-18T09:04:22.974Z,49.18
2024-04-18T09:05:54.679Z,48.69
2024-04-18T09:07:26.673Z,48.75
2024-04-18T09:08:58.357Z,48.98
2024-04-18T09:10:30.338Z,48.76
2024-04-18T09:12:04.211Z,48.98
2024-04-18T09:13:36.241Z,48.67
2024-04-18T09:15:09.141Z,48.72
2024-04-18T09:16:40.896Z,48.64
2024-04-18T09:18:12.772Z,49.05
2024-04-18T09:19:44.703Z,48.15
2024-04-18T09:21:16.463Z,48.40
2024-04-18T09:22:48.445Z,48.29
2024-04-18T09:24:20.427Z,48.00
2024-04-18T09:25:55.196Z,47.95
2024-04-18T09:27:26.928Z,48.23
2024-04-18T09:28:58.883Z,48.31
2024-04-18T09:30:31.280Z,48.59
2024-04-18T09:32:03.580Z,48.43
2024-04-18T09:33:35.708Z,48.69
2024-04-18T09:35:08.547Z,48.65
2024-04-18T09:36:41.783Z,48.14
2024-04-18T09:38:14.384Z,48.64
2024-04-18T09:39:50.009Z,48.14
2024-04-18T09:41:24.000Z,48.10
2024-04-18T09:42:59.727Z,48.06
2024-04-18T09:44:32.401Z,48.27
2024-04-18T09:46:04.675Z,47.72
2024-04-18T09:47:36.777Z,47.43
2024-04-18T09:49:08.904Z,47.81
2024-04-18T09:50:40.639Z,47.36
2024-04-18T09:52:12.288Z,47.43
2024-04-18T09:53:44.544Z,47.95
2024-04-18T09:55:16.838Z,47.30
2024-04-18T09:56:48.573Z,47.93
2024-04-18T09:58:20.528Z,47.24
2024-04-18T09:59:52.495Z,47.11
2024-04-18T10:01:24.280Z,47.35
2024-04-18T10:02:56.269Z,47.33
2024-04-18T10:04:28.063Z,47.00
2024-04-18T10:06:01.149Z,47.33
2024-04-18T10:07:33.243Z,47.14
2024-04-18T10:09:07.092Z,46.93
2024-04-18T10:10:42.713Z,47.27
2024-04-18T10:12:14.496Z,47.16
2024-04-18T10:13:46.624Z,47.34
2024-04-18T10:15:20.248Z,47.29
2024-04-18T10:16:52.387Z,46.87
2024-04-18T10:18:33.759Z,47.04
2024-04-18T10:20:09.406Z,46.38
2024-04-18T10:21:49.845Z,46.67
2024-04-18T10:23:33.933Z,46.35
2024-04-18T10:25:06.011Z,46.22
2024-04-18T10:26:39.043Z,46.34
2024-04-18T10:28:24.484Z,45.83
2024-04-18T10:29:59.304Z,46.49
2024-04-18T10:31:30.947Z,46.17
2024-04-18T10:33:03.047Z,45.71
2024-04-18T10:34:34.802Z,46.03
2024-04-18T10:36:11.119Z,46.09
2024-04-18T10:37:50.008Z,45.60
2024-04-18T10:39:31.485Z,45.47
2024-04-18T10:41:03.733Z,45.39
2024-04-18T10:42:38.575Z,45.51
2024-04-18T10:44:10.386Z,46.03
2024-04-18T10:45:45.159Z,45.34
2024-04-18T10:47:25.619Z,45.79
2024-04-18T10:48:58.907Z,45.30
2024-04-18T10:50:33.485Z,45.64
2024-04-18T10:52:10.626Z,45.73
2024-04-18T10:53:42.303Z,45.68
2024-04-18T10:55:14.205Z,45.96
2024-04-18T10:56:45.881Z,45.93
2024-04-18T10:58:18.569Z,45.96
2024-04-18T10:59:50.634Z,45.48
2024-04-18T11:01:23.071Z,45.86
2024-04-18T11:02:58.583Z,45.57
2024-04-18T11:04:30.686Z,45.85
2024-04-18T11:06:04.410Z,45.47
2024-04-18T11:07:36.275Z,45.60
2024-04-18T11:09:08.820Z,45.90
2024-04-18T11:10:40.955Z,45.04
2024-04-18T11:12:12.975Z,44.89
2024-04-18T11:13:44.985Z,44.81
2024-04-18T11:15:17.261Z,45.32
2024-04-18T11:16:58.664Z,45.12
2024-04-18T11:18:31.236Z,45.18
2024-04-18T11:20:03.389Z,45.20
2024-04-18T11:21:35.158Z,45.15
2024-04-18T11:23:13.736Z,45.17
2024-04-18T11:24:47.616Z,45.19
2024-04-18T11:26:21.102Z,45.05
2024-04-18T11:27:53.185Z,45.20
2024-04-18T11:29:30.612Z,45.22
2024-04-18T11:31:02.409Z,44.73
2024-04-18T11:32:34.970Z,45.00
2024-04-18T11:34:06.915Z,44.91
2024-04-18T11:35:38.862Z,45.02
2024-04-18T11:37:14.909Z,44.75
2024-04-18T11:38:48.054Z,44.60
2024-04-18T11:40:19.829Z,44.64
2024-04-18T11:41:51.842Z,44.32
2024-04-18T11:43:23.727Z,44.34
2024-04-18T11:44:55.964Z,44.29
2024-04-18T11:46:27.948Z,44.11
2024-04-18T11:48:00.230Z,43.92
2024-04-18T11:49:32.233Z,43.86
2024-04-18T11:51:04.649Z,44.12
2024-04-18T11:52:36.621Z,43.76
2024-04-18T11:54:08.312Z,43.80
2024-04-18T11:55:39.968Z,43.71
2024-04-18T11:57:12.352Z,43.70
2024-04-18T11:58:44.331Z,43.57
2024-04-18T12:00:16.462Z,43.54
2024-04-18T12:01:48.160Z,43.50
2024-04-18T12:03:21.372Z,43.24
2024-04-18T12:04:53.323Z,43.11
2024-04-18T12:06:25.214Z,42.98
2024-04-18T12:07:57.105Z,43.18
2024-04-18T12:09:29.362Z,43.04
2024-04-18T12:11:01.536Z,42.96
2024-04-18T12:12:33.263Z,42.92
2024-04-18T12:14:06.772Z,42.67
2024-04-18T12:15:39.870Z,42.56
2024-04-18T12:17:12.152Z,42.59
2024-04-18T12:18:44.199Z,43.01
2024-04-18T12:20:16.919Z,42.94
2024-04-18T12:21:49.378Z,42.37
2024-04-18T12:23:21.386Z,42.43
2024-04-18T12:24:53.177Z,42.28
2024-04-18T12:26:24.922Z,42.19
2024-04-18T12:27:56.728Z,42.03
2024-04-18T12:29:28.513Z,42.01
2024-04-18T12:31:00.701Z,41.75
2024-04-18T12:32:32.502Z,42.07
2024-04-18T12:34:04.371Z,41.86
2024-04-18T12:35:36.051Z,41.82
2024-04-18T12:37:08.056Z,42.10
2024-04-18T12:38:39.861Z,42.02
2024-04-18T12:40:12.087Z,41.59
2024-04-18T12:41:43.926Z,41.88
2024-04-18T12:43:16.044Z,41.78
2024-04-18T12:44:47.788Z,41.60
2024-04-18T12:46:23.672Z,41.48
2024-04-18T12:48:01.160Z,41.70
2024-04-18T12:49:32.974Z,41.39
2024-04-18T12:51:06.910Z,41.43
2024-04-18T12:52:38.844Z,41.34
2024-04-18T12:54:10.909Z,41.08
2024-04-18T12:55:43.178Z,41.20
2024-04-18T12:57:15.024Z,41.24
2024-04-18T12:58:46.845Z,41.41
2024-04-18T13:00:18.693Z,41.42
2024-04-18T13:01:50.424Z,41.10
2024-04-18T13:03:22.577Z,41.03
2024-04-18T13:04:54.442Z,41.13
2024-04-18T13:06:27.999Z,40.91
2024-04-18T13:07:59.841Z,40.96
2024-04-18T13:09:31.917Z,40.80
2024-04-18T13:11:04.459Z,40.83
2024-04-18T13:12:36.266Z,40.88
2024-04-18T13:14:08.609Z,40.86
2024-04-18T13:15:40.277Z,40.91
2024-04-18T13:17:12.116Z,40.78
2024-04-18T13:18:44.787Z,40.71
2024-04-18T13:20:17.301Z,40.81
2024-04-18T13:21:49.315Z,40.71
2024-04-18T13:23:23.051Z,40.56
2024-04-18T13:24:54.762Z,40.47
2024-04-18T13:26:26.411Z,40.42
2024-04-18T13:28:00.123Z,40.51
2024-04-18T13:29:31.950Z,40.30
2024-04-18T13:31:03.807Z,40.25
2024-04-18T13:32:36.794Z,40.22
2024-04-18T13:34:08.629Z,40.20
2024-04-18T13:35:40.902Z,40.45
2024-04-18T13:37:12.940Z,40.55
2024-04-18T13:38:44.691Z,40.39
2024-04-18T13:40:17.242Z,40.32
2024-04-18T13:41:49.104Z,40.22
2024-04-18T13:43:20.997Z,40.04
2024-04-18T13:44:53.758Z,40.13
2024-04-18T13:46:25.447Z,40.11
2024-04-18T13:47:57.282Z,40.05
2024-04-18T13:49:29.024Z,40.01
2024-04-18T13:51:02.236Z,39.72
2024-04-18T13:52:33.990Z,39.76
2024-04-18T13:54:06.501Z,39.72
2024-04-18T13:55:38.215Z,39.62
2024-04-18T13:57:09.865Z,39.69
2024-04-18T13:58:41.621Z,39.62
2024-04-18T14:00:13.406Z,39.73
2024-04-18T14:01:45.214Z,39.63
2024-04-18T14:03:19.476Z,39.51
2024-04-18T14:04:51.437Z,39.46
2024-04-18T14:06:23.163Z,39.49
2024-04-18T14:07:54.875Z,39.34
2024-04-18T14:09:35.188Z,39.61
2024-04-18T14:11:07.030Z,39.32
2024-04-18T14:12:38.795Z,39.18
2024-04-18T14:14:10.906Z,38.99
2024-04-18T14:16:02.701Z,39.10
2024-04-18T14:17:53.079Z,38.96
2024-04-18T14:19:25.804Z,38.98
2024-04-18T14:20:57.702Z,39.14
2024-04-18T14:22:29.515Z,38.86
2024-04-18T14:24:03.460Z,38.79
2024-04-18T14:25:35.217Z,38.59
2024-04-18T14:27:07.105Z,38.42
2024-04-18T14:28:38.924Z,38.32
2024-04-18T14:30:11.507Z,38.75
2024-04-18T14:31:43.205Z,38.43
2024-04-18T14:33:15.124Z,38.33
2024-04-18T14:34:47.348Z,38.39
2024-04-18T14:36:19.253Z,38.20
2024-04-18T14:37:50.907Z,38.27
2024-04-18T14:39:22.674Z,38.39
2024-04-18T14:41:02.055Z,38.38
2024-04-18T14:42:41.560Z,38.21
2024-04-18T14:44:13.533Z,38.20
2024-04-18T14:45:45.736Z,38.14
2024-04-18T14:47:17.638Z,38.37
2024-04-18T14:48:49.970Z,38.13
2024-04-18T14:50:21.705Z,38.19
2024-04-18T14:51:53.344Z,38.09
2024-04-18T14:53:27.248Z,38.34
2024-04-18T14:54:59.467Z,38.16
2024-04-18T14:56:31.147Z,37.85
2024-04-18T14:58:03.142Z,37.55
2024-04-18T14:59:34.979Z,37.76
2024-04-18T15:01:06.735Z,37.64
2024-04-18T15:02:38.528Z,37.75
2024-04-18T15:04:10.270Z,37.65
2024-04-18T15:05:48.937Z,38.13
2024-04-18T15:07:20.877Z,37.71
2024-04-18T15:08:53.741Z,37.80
2024-04-18T15:10:26.103Z,37.68
2024-04-18T15:11:57.857Z,37.71
2024-04-18T15:13:29.560Z,37.63
2024-04-18T15:15:01.281Z,37.79
2024-04-18T15:16:33.342Z,37.95
2024-04-18T15:18:05.366Z,37.78
2024-04-18T15:19:37.279Z,37.84
2024-04-18T15:21:09.571Z,37.64
2024-04-18T15:22:41.255Z,37.81
2024-04-18T15:24:13.492Z,37.62
2024-04-18T15:25:45.638Z,37.82
2024-04-18T15:27:17.379Z,37.75
2024-04-18T15:28:49.114Z,37.55
2024-04-18T15:30:20.772Z,37.60
2024-04-18T15:31:52.552Z,37.58
2024-04-18T15:33:24.366Z,37.56
2024-04-18T15:34:56.218Z,37.84
2024-04-18T15:36:28.056Z,37.74
2024-04-18T15:37:59.709Z,37.81
2024-04-18T15:39:31.390Z,37.83
2024-04-18T15:41:03.131Z,37.87
2024-04-18T15:42:34.945Z,37.80
2024-04-18T15:44:07.550Z,37.92
2024-04-18T15:45:42.155Z,37.74
2024-04-18T15:47:13.996Z,37.86
2024-04-18T15:48:45.912Z,37.98
2024-04-18T15:50:18.015Z,37.97
2024-04-18T15:51:49.729Z,37.84
2024-04-18T15:53:21.537Z,38.25
2024-04-18T15:55:04.636Z,38.13
2024-04-18T15:56:44.552Z,38.16
2024-04-18T15:58:16.594Z,38.25
2024-04-18T15:59:48.352Z,38.08
2024-04-18T16:01:20.043Z,38.19
2024-04-18T16:02:54.128Z,37.98
2024-04-18T16:04:27.616Z,38.45
2024-04-18T16:05:59.448Z,38.20
2024-04-18T16:07:31.171Z,38.05
2024-04-18T16:09:03.078Z,38.33
2024-04-18T16:10:34.989Z,38.24
2024-04-18T16:12:06.809Z,37.83
2024-04-18T16:13:38.660Z,38.17
2024-04-18T16:15:10.555Z,37.95
2024-04-18T16:16:42.743Z,38.05
2024-04-18T16:18:14.556Z,37.73
2024-04-18T16:19:48.275Z,37.69
2024-04-18T16:21:20.180Z,37.65
2024-04-18T16:22:51.857Z,38.33
2024-04-18T16:24:23.647Z,38.42
2024-04-18T16:25:55.376Z,38.35
2024-04-18T16:27:27.167Z,38.42
2024-04-18T16:28:58.902Z,38.47
2024-04-18T16:30:31.974Z,38.23
2024-04-18T16:32:03.918Z,37.97
2024-04-18T16:33:38.033Z,38.58
2024-04-18T16:35:09.827Z,38.16
2024-04-18T16:36:52.640Z,38.11
2024-04-18T16:38:32.035Z,38.21
2024-04-18T16:40:03.949Z,38.81
2024-04-18T16:41:35.601Z,38.21
2024-04-18T16:43:07.491Z,38.28
2024-04-18T16:44:39.185Z,38.29
2024-04-18T16:46:11.390Z,38.94
2024-04-18T16:47:43.156Z,38.88
2024-04-18T16:49:14.999Z,38.52
2024-04-18T16:50:46.842Z,38.74
2024-04-18T16:52:18.562Z,38.87
2024-04-18T16:53:54.059Z,39.06
2024-04-18T16:55:25.866Z,38.94
2024-04-18T16:56:57.610Z,38.75
2024-04-18T16:58:29.381Z,38.70
2024-04-18T17:00:01.107Z,39.14
2024-04-18T17:01:32.826Z,39.04
2024-04-18T17:03:05.762Z,38.96
2024-04-18T17:04:37.787Z,39.40
2024-04-18T17:06:12.052Z,39.27
2024-04-18T17:07:44.097Z,39.07
2024-04-18T17:09:16.433Z,39.09
2024-04-18T17:10:48.188Z,39.35
2024-04-18T17:12:20.193Z,39.71
2024-04-18T17:13:53.461Z,39.66
2024-04-18T17:15:26.348Z,39.61
2024-04-18T17:16:58.055Z,39.90
2024-04-18T17:18:29.900Z,39.52
2024-04-18T17:20:02.220Z,40.00
2024-04-18T17:21:36.417Z,39.89
2024-04-18T17:23:08.289Z,40.06
2024-04-18T17:24:41.087Z,39.75
2024-04-18T17:26:12.787Z,40.18
2024-04-18T17:27:44.543Z,40.01
2024-04-18T17:29:16.418Z,40.13
2024-04-18T17:30:48.313Z,40.19
2024-04-18T17:32:20.014Z,40.60
2024-04-18T17:33:51.723Z,40.22
2024-04-18T17:35:23.427Z,40.50
2024-04-18T17:36:55.138Z,40.61
2024-04-18T17:38:26.959Z,40.66
2024-04-18T17:39:58.741Z,40.80
2024-04-18T17:41:30.916Z,40.74
2024-04-18T17:43:02.783Z,40.71
2024-04-18T17:44:34.464Z,40.91
2024-04-18T17:46:06.283Z,41.00
2024-04-18T17:47:38.145Z,40.97
2024-04-18T17:49:10.033Z,41.05
2024-04-18T17:50:42.067Z,41.01
2024-04-18T17:52:14.021Z,40.90
2024-04-18T17:53:45.876Z,40.88
2024-04-18T17:55:18.678Z,41.20
2024-04-18T17:56:50.613Z,41.03
2024-04-18T17:58:22.884Z,41.46
2024-04-18T17:59:54.654Z,41.28
2024-04-18T18:01:26.361Z,41.25
2024-04-18T18:02:58.258Z,41.48
2024-04-18T18:04:30.421Z,41.57
2024-04-18T18:06:02.756Z,41.49
2024-04-18T18:07:34.519Z,41.56
2024-04-18T18:09:09.852Z,41.74
2024-04-18T18:10:41.772Z,41.75
2024-04-18T18:12:13.562Z,41.69
2024-04-18T18:13:45.729Z,41.82
2024-04-18T18:15:17.980Z,41.71
2024-04-18T18:16:49.847Z,41.70
2024-04-18T18:18:22.098Z,41.77
2024-04-18T18:19:54.063Z,41.80
2024-04-18T18:21:26.741Z,41.76
2024-04-18T18:22:59.037Z,41.85
2024-04-18T18:24:31.355Z,41.82
2024-04-18T18:26:03.351Z,41.88
2024-04-18T18:27:35.774Z,41.67
2024-04-18T18:29:09.363Z,41.78
2024-04-18T18:30:42.233Z,41.65
2024-04-18T18:32:14.892Z,41.55
2024-04-18T18:33:48.753Z,41.67
2024-04-18T18:35:20.930Z,41.44
2024-04-18T18:36:52.662Z,41.52
2024-04-18T18:38:24.588Z,41.58
2024-04-18T18:39:56.244Z,41.47
2024-04-18T18:41:28.438Z,41.71
2024-04-18T18:43:01.943Z,41.69
2024-04-18T18:44:34.446Z,42.02
2024-04-18T18:46:06.198Z,42.02
2024-04-18T18:47:38.074Z,41.79
2024-04-18T18:49:11.246Z,41.84
2024-04-18T18:50:43.376Z,41.77
2024-04-18T18:52:15.152Z,41.87
2024-04-18T18:53:46.884Z,41.84
2024-04-18T18:55:18.625Z,41.83
2024-04-18T18:56:50.634Z,41.83
2024-04-18T18:58:22.385Z,41.90
2024-04-18T18:59:54.209Z,42.11
2024-04-18T19:01:26.259Z,42.18
2024-04-18T19:02:59.364Z,42.34
2024-04-18T19:04:32.918Z,42.24
2024-04-18T19:06:05.133Z,42.09
2024-04-18T19:07:37.271Z,42.27
2024-04-18T19:09:10.129Z,42.17
2024-04-18T19:10:42.204Z,42.28
2024-04-18T19:12:14.172Z,42.14
2024-04-18T19:13:46.170Z,42.33
2024-04-18T19:15:19.161Z,42.25
2024-04-18T19:16:50.864Z,42.34
2024-04-18T19:18:22.841Z,42.08
2024-04-18T19:19:55.368Z,42.24
2024-04-18T19:21:27.368Z,42.15
2024-04-18T19:22:59.088Z,42.15
2024-04-18T19:24:30.946Z,42.33
2024-04-18T19:26:02.898Z,42.39
2024-04-18T19:27:35.247Z,42.51
2024-04-18T19:29:06.952Z,42.48
2024-04-18T19:30:38.744Z,42.67
2024-04-18T19:32:10.949Z,42.65
2024-04-18T19:33:42.745Z,42.50
2024-04-18T19:35:15.616Z,42.64
2024-04-18T19:36:48.090Z,42.52
2024-04-18T19:38:20.532Z,42.52
2024-04-18T19:39:52.572Z,42.76
2024-04-18T19:41:24.406Z,42.66
2024-04-18T19:42:56.107Z,42.55
2024-04-18T19:44:27.762Z,42.50
2024-04-18T19:45:59.930Z,42.86
2024-04-18T19:47:31.712Z,42.58
2024-04-18T19:49:04.338Z,42.38
2024-04-18T19:50:38.211Z,42.47
2024-04-18T19:52:11.449Z,42.66
2024-04-18T19:53:43.290Z,42.61